Time;durP1;ratioP1;P1;durP2;ratioP2;P2;SDS_P1;SDS_P2;PMS_P1;PMS_P2;Temp;Humidity;BMP_temperature;BMP_pressure;BME280_temperature;BME280_humidity;BME280_pressure;Samples;Min_cycle;Max_cycle;Signal;HPM_P1;HPM_P2
2022/05/21 00:00:14;;;;;;;31.15;16.83;;;;;;;;;;4978985;28;20485;-74
2022/05/21 00:02:40;;;;;;;37.20;17.33;;;;;;;;;;4979137;28;20449;-74
2022/05/21 00:05:06;;;;;;;32.45;15.48;;;;;;;;;;4978795;28;20466;-74
2022/05/21 00:07:32;;;;;;;33.22;16.40;;;;;;;;;;4978798;28;20732;-74
2022/05/21 00:09:58;;;;;;;32.83;16.65;;;;;;;;;;4978876;28;20382;-74
2022/05/21 00:12:24;;;;;;;27.23;14.35;;;;;;;;;;4978707;28;20019;-74
2022/05/21 00:14:53;;;;;;;32.40;15.40;;;;;;;;;;4978635;28;20074;-74
2022/05/21 00:17:20;;;;;;;24.10;13.13;;;;;;;;;;4978785;28;20031;-75
2022/05/21 00:19:46;;;;;;;29.63;14.35;;;;;;;;;;4978586;28;20430;-75
2022/05/21 00:22:12;;;;;;;24.17;14.18;;;;;;;;;;4978576;28;20035;-75
2022/05/21 00:24:38;;;;;;;27.90;13.32;;;;;;;;;;4978567;28;20133;-75
2022/05/21 00:27:05;;;;;;;24.45;13.65;;;;;;;;;;4978633;28;20043;-75
2022/05/21 00:29:31;;;;;;;22.52;13.70;;;;;;;;;;4978697;28;20034;-75
2022/05/21 00:31:57;;;;;;;22.10;13.13;;;;;;;;;;4978807;28;20381;-75
2022/05/21 00:34:24;;;;;;;29.85;14.20;;;;;;;;;;4961070;28;20030;-75
2022/05/21 00:36:51;;;;;;;30.50;13.75;;;;;;;;;;4978637;28;20106;-75
2022/05/21 00:39:17;;;;;;;27.13;13.20;;;;;;;;;;4978575;28;20533;-74
2022/05/21 00:41:43;;;;;;;22.15;10.95;;;;;;;;;;4978525;28;20043;-75
2022/05/21 00:44:09;;;;;;;26.83;12.80;;;;;;;;;;4978481;28;20030;-74
2022/05/21 00:46:39;;;;;;;24.13;11.82;;;;;;;;;;4978543;28;20513;-74
2022/05/21 00:49:23;;;;;;;20.67;11.63;;;;;;;;;;4978273;28;20146;-75
2022/05/21 00:51:53;;;;;;;23.48;13.05;;;;;;;;;;4976671;28;20058;-75
2022/05/21 00:54:21;;;;;;;24.05;12.23;;;;;;;;;;4962398;28;20078;-74
2022/05/21 00:57:02;;;;;;;23.23;12.48;;;;;;;;;;4956032;29;20062;-75
2022/05/21 00:59:48;;;;;;;23.52;12.30;;;;;;;;;;4966071;28;20027;-75
2022/05/21 01:02:15;;;;;;;24.83;13.00;;;;;;;;;;4975242;28;20046;-75
2022/05/21 01:04:44;;;;;;;22.58;12.38;;;;;;;;;;4975163;28;20079;-75
2022/05/21 01:07:11;;;;;;;19.35;12.57;;;;;;;;;;4975095;28;20385;-75
2022/05/21 01:09:39;;;;;;;22.15;12.88;;;;;;;;;;4975061;28;20097;-74
2022/05/21 01:12:06;;;;;;;22.80;12.88;;;;;;;;;;4974998;28;20027;-75
2022/05/21 01:14:32;;;;;;;28.67;13.43;;;;;;;;;;4974926;28;20086;-74
2022/05/21 01:17:00;;;;;;;26.17;13.15;;;;;;;;;;4975185;28;20023;-74
2022/05/21 01:19:26;;;;;;;23.40;12.70;;;;;;;;;;4974938;28;20453;-74
2022/05/21 01:21:52;;;;;;;25.17;12.57;;;;;;;;;;4974758;28;20050;-74
2022/05/21 01:24:18;;;;;;;28.33;13.05;;;;;;;;;;4974745;28;20081;-74
2022/05/21 01:26:45;;;;;;;24.52;12.35;;;;;;;;;;4974535;28;20110;-74
2022/05/21 01:29:15;;;;;;;22.00;12.68;;;;;;;;;;4974750;28;20027;-74
2022/05/21 01:31:47;;;;;;;35.15;13.68;;;;;;;;;;4974732;28;20525;-75
2022/05/21 01:34:13;;;;;;;27.20;13.32;;;;;;;;;;4974760;28;20062;-74
2022/05/21 01:36:39;;;;;;;26.60;12.75;;;;;;;;;;4974659;28;20536;-75
2022/05/21 01:39:05;;;;;;;28.38;13.43;;;;;;;;;;4974535;28;20461;-74
2022/05/21 01:41:31;;;;;;;23.60;12.15;;;;;;;;;;4974615;28;20390;-74
2022/05/21 01:46:42;;;;;;;29.27;13.20;;;;;;;;;;4974455;28;20062;-74
2022/05/21 01:49:08;;;;;;;24.20;12.77;;;;;;;;;;4974416;28;20039;-74
2022/05/21 01:51:34;;;;;;;24.40;13.23;;;;;;;;;;4974414;28;20027;-74
2022/05/21 01:54:00;;;;;;;23.08;12.52;;;;;;;;;;4963955;28;20434;-74
2022/05/21 01:56:26;;;;;;;22.35;12.98;;;;;;;;;;4955037;29;20034;-74
2022/05/21 01:58:52;;;;;;;23.70;12.20;;;;;;;;;;4960035;28;20031;-74
2022/05/21 02:01:18;;;;;;;23.67;12.00;;;;;;;;;;4957007;28;20042;-74
2022/05/21 02:03:44;;;;;;;26.38;12.27;;;;;;;;;;4973860;28;20031;-74
2022/05/21 02:06:10;;;;;;;26.83;11.95;;;;;;;;;;4973980;28;20031;-74
2022/05/21 02:08:36;;;;;;;29.27;13.38;;;;;;;;;;4974218;28;20027;-74
2022/05/21 02:11:03;;;;;;;22.70;12.30;;;;;;;;;;4974003;28;20026;-74
2022/05/21 02:13:31;;;;;;;25.98;11.73;;;;;;;;;;4974121;28;20023;-75
2022/05/21 02:15:57;;;;;;;24.60;12.10;;;;;;;;;;4974071;28;20030;-75
2022/05/21 02:18:23;;;;;;;25.77;10.95;;;;;;;;;;4973842;28;20552;-75
2022/05/21 02:20:50;;;;;;;25.92;12.20;;;;;;;;;;4973784;28;20027;-75
2022/05/21 02:23:17;;;;;;;25.73;11.70;;;;;;;;;;4973892;28;20042;-75
2022/05/21 02:25:43;;;;;;;23.45;11.57;;;;;;;;;;4973560;28;20079;-75
2022/05/21 02:28:10;;;;;;;23.02;11.13;;;;;;;;;;4973939;28;20026;-75
2022/05/21 02:30:36;;;;;;;23.75;12.18;;;;;;;;;;4973808;28;20031;-75
2022/05/21 02:33:03;;;;;;;25.63;11.95;;;;;;;;;;4973755;28;20046;-75
2022/05/21 02:35:29;;;;;;;27.02;12.70;;;;;;;;;;4973991;28;20120;-75
2022/05/21 02:40:39;;;;;;;21.55;11.43;;;;;;;;;;4973839;28;20126;-75
2022/05/21 02:43:05;;;;;;;28.02;11.52;;;;;;;;;;4973623;28;20065;-75
2022/05/21 02:45:31;;;;;;;27.73;12.30;;;;;;;;;;4973463;28;20065;-75
2022/05/21 02:47:58;;;;;;;19.90;11.00;;;;;;;;;;4973590;28;20050;-76
2022/05/21 02:50:34;;;;;;;26.98;12.07;;;;;;;;;;4973585;28;20466;-75
2022/05/21 02:53:08;;;;;;;26.83;12.43;;;;;;;;;;4973548;28;20090;-75
2022/05/21 02:55:34;;;;;;;22.92;12.15;;;;;;;;;;4973320;28;20031;-75
2022/05/21 02:58:00;;;;;;;26.80;11.55;;;;;;;;;;4973518;28;20030;-75
2022/05/21 03:00:28;;;;;;;21.95;12.00;;;;;;;;;;4973203;28;20034;-75
2022/05/21 03:02:55;;;;;;;25.00;11.57;;;;;;;;;;4956129;28;20049;-75
2022/05/21 03:05:21;;;;;;;30.45;11.10;;;;;;;;;;4973077;28;20083;-75
2022/05/21 03:07:48;;;;;;;28.33;11.43;;;;;;;;;;4973086;28;20031;-75
2022/05/21 03:10:22;;;;;;;31.55;11.38;;;;;;;;;;4972860;28;20052;-75
2022/05/21 03:12:52;;;;;;;19.13;10.75;;;;;;;;;;4973068;28;20023;-75
2022/05/21 03:15:19;;;;;;;29.45;12.45;;;;;;;;;;4971999;28;20029;-75
2022/05/21 03:17:46;;;;;;;22.95;11.18;;;;;;;;;;4972997;28;20458;-75
2022/05/21 03:20:13;;;;;;;29.95;11.50;;;;;;;;;;4967169;28;20035;-75
2022/05/21 03:22:39;;;;;;;28.45;11.30;;;;;;;;;;4953552;29;20143;-75
2022/05/21 03:25:06;;;;;;;27.48;10.40;;;;;;;;;;4953355;29;20454;-75
2022/05/21 03:27:32;;;;;;;25.35;11.88;;;;;;;;;;4953486;29;20036;-75
2022/05/21 03:29:58;;;;;;;26.17;10.70;;;;;;;;;;4953572;29;20024;-75
2022/05/21 03:32:24;;;;;;;30.60;10.27;;;;;;;;;;4953541;29;20024;-75
2022/05/21 03:34:50;;;;;;;22.58;10.60;;;;;;;;;;4953630;29;20062;-75
2022/05/21 03:37:16;;;;;;;27.80;10.82;;;;;;;;;;4935983;29;20331;-75
2022/05/21 03:39:42;;;;;;;36.35;11.25;;;;;;;;;;4953354;29;20042;-75
2022/05/21 03:42:09;;;;;;;23.35;9.93;;;;;;;;;;4953345;29;20473;-75
2022/05/21 03:44:35;;;;;;;29.45;9.95;;;;;;;;;;4953394;29;20023;-75
2022/05/21 03:47:02;;;;;;;30.63;9.95;;;;;;;;;;4953165;29;20019;-75
2022/05/21 03:49:28;;;;;;;24.55;9.38;;;;;;;;;;4953229;29;20033;-75
2022/05/21 03:51:54;;;;;;;33.28;10.55;;;;;;;;;;4953014;29;20062;-75
2022/05/21 03:54:21;;;;;;;29.40;10.70;;;;;;;;;;4966178;28;20054;-75
2022/05/21 03:56:47;;;;;;;17.55;9.02;;;;;;;;;;4972402;28;20082;-75
2022/05/21 03:59:13;;;;;;;25.10;9.40;;;;;;;;;;4972588;28;20105;-75
2022/05/21 04:01:41;;;;;;;29.33;10.20;;;;;;;;;;4972677;28;20034;-75
2022/05/21 04:04:07;;;;;;;37.38;9.50;;;;;;;;;;4972625;28;20027;-75
2022/05/21 04:06:52;;;;;;;30.10;8.93;;;;;;;;;;4972357;28;20074;-76
2022/05/21 04:09:18;;;;;;;26.50;9.60;;;;;;;;;;4972573;28;20366;-75
2022/05/21 04:11:44;;;;;;;31.52;9.63;;;;;;;;;;4972502;28;20470;-75
2022/05/21 04:14:13;;;;;;;24.38;9.32;;;;;;;;;;4972660;28;20123;-75
2022/05/21 04:16:39;;;;;;;25.35;8.68;;;;;;;;;;4972638;28;20023;-75
2022/05/21 04:19:05;;;;;;;28.33;8.75;;;;;;;;;;4972487;28;20031;-76
2022/05/21 04:21:31;;;;;;;19.10;8.13;;;;;;;;;;4972336;28;20050;-74
2022/05/21 04:23:57;;;;;;;28.15;8.57;;;;;;;;;;4972314;28;20390;-75
2022/05/21 04:26:23;;;;;;;28.10;8.48;;;;;;;;;;4973833;28;20031;-74
2022/05/21 04:28:49;;;;;;;31.70;8.27;;;;;;;;;;4976078;28;20720;-74
2022/05/21 04:31:15;;;;;;;29.02;9.07;;;;;;;;;;4976135;28;20098;-75
2022/05/21 04:33:41;;;;;;;27.40;7.35;;;;;;;;;;4976084;28;20038;-74
2022/05/21 04:36:19;;;;;;;25.02;7.80;;;;;;;;;;4975968;28;20030;-74
2022/05/21 04:38:46;;;;;;;34.83;7.90;;;;;;;;;;4975889;28;20023;-74
2022/05/21 04:41:12;;;;;;;22.73;6.88;;;;;;;;;;4975935;28;20038;-74
2022/05/21 04:43:39;;;;;;;22.05;6.95;;;;;;;;;;4975740;28;20027;-74
2022/05/21 04:46:06;;;;;;;32.92;6.95;;;;;;;;;;4975600;28;20465;-74
2022/05/21 04:48:32;;;;;;;19.05;6.65;;;;;;;;;;4975697;28;20141;-75
2022/05/21 04:50:59;;;;;;;27.45;6.15;;;;;;;;;;4975543;28;20015;-75
2022/05/21 04:53:25;;;;;;;20.33;6.00;;;;;;;;;;4975512;28;20019;-75
2022/05/21 04:55:51;;;;;;;23.15;6.25;;;;;;;;;;4975313;28;20034;-74
2022/05/21 04:58:17;;;;;;;29.02;5.88;;;;;;;;;;4975172;28;20074;-76
2022/05/21 05:00:43;;;;;;;33.38;5.65;;;;;;;;;;4975527;28;20035;-74
2022/05/21 05:03:11;;;;;;;21.42;5.13;;;;;;;;;;4975401;28;20037;-74
2022/05/21 05:05:38;;;;;;;16.13;4.70;;;;;;;;;;4975082;28;20425;-76
2022/05/21 05:08:04;;;;;;;28.30;5.45;;;;;;;;;;4975392;28;20031;-74
2022/05/21 05:10:30;;;;;;;18.52;5.45;;;;;;;;;;4974914;28;20030;-74
2022/05/21 05:12:56;;;;;;;15.43;3.47;;;;;;;;;;4975200;28;20030;-74
2022/05/21 05:15:22;;;;;;;17.85;4.13;;;;;;;;;;4975081;28;20027;-76
2022/05/21 05:17:48;;;;;;;21.42;4.57;;;;;;;;;;4974958;28;20027;-76
2022/05/21 05:20:14;;;;;;;19.33;3.80;;;;;;;;;;4969059;28;20026;-74
2022/05/21 05:22:40;;;;;;;19.42;3.85;;;;;;;;;;4955676;29;20046;-74
2022/05/21 05:25:07;;;;;;;19.98;3.33;;;;;;;;;;4955281;29;20034;-75
2022/05/21 05:27:33;;;;;;;16.70;3.38;;;;;;;;;;4956031;29;20031;-74
2022/05/21 05:30:00;;;;;;;21.20;3.20;;;;;;;;;;4955970;29;20035;-75
2022/05/21 05:32:27;;;;;;;15.57;3.10;;;;;;;;;;4956015;29;20462;-75
2022/05/21 05:34:53;;;;;;;12.63;2.70;;;;;;;;;;4955998;29;20118;-75
2022/05/21 05:37:19;;;;;;;13.82;3.20;;;;;;;;;;4954866;28;20553;-75
2022/05/21 05:39:45;;;;;;;23.35;2.97;;;;;;;;;;4955564;29;20475;-75
2022/05/21 05:42:11;;;;;;;15.63;2.65;;;;;;;;;;4955208;29;20038;-75
2022/05/21 05:44:37;;;;;;;18.58;2.70;;;;;;;;;;4955267;29;20532;-75
2022/05/21 05:47:03;;;;;;;16.98;2.80;;;;;;;;;;4954887;29;20122;-75
2022/05/21 05:49:29;;;;;;;13.65;2.40;;;;;;;;;;4970930;28;20062;-75
2022/05/21 05:51:55;;;;;;;17.20;2.30;;;;;;;;;;4973959;28;20027;-75
2022/05/21 05:54:21;;;;;;;18.23;2.80;;;;;;;;;;4971286;28;20026;-75
2022/05/21 05:56:47;;;;;;;15.50;2.83;;;;;;;;;;4973490;28;20027;-75
2022/05/21 06:04:43;;;;;;;25.48;3.00;;;;;;;;;;4973525;28;20037;-75
2022/05/21 06:07:15;;;;;;;30.00;4.00;;;;;;;;;;4973593;28;20030;-75
2022/05/21 06:09:42;;;;;;;17.40;2.28;;;;;;;;;;4973692;28;20081;-74
2022/05/21 06:12:08;;;;;;;15.68;2.00;;;;;;;;;;4973495;28;20019;-75
2022/05/21 06:14:35;;;;;;;15.68;2.53;;;;;;;;;;4956142;28;20026;-75
2022/05/21 06:17:01;;;;;;;14.13;3.15;;;;;;;;;;4973521;28;20015;-75
2022/05/21 06:19:27;;;;;;;19.60;2.70;;;;;;;;;;4973558;28;20034;-75
2022/05/21 06:21:58;;;;;;;14.93;2.22;;;;;;;;;;4973351;28;20034;-75
2022/05/21 06:24:24;;;;;;;18.20;2.97;;;;;;;;;;4973362;28;20569;-75
2022/05/21 06:26:50;;;;;;;11.98;2.53;;;;;;;;;;4973267;28;20131;-75
2022/05/21 06:29:16;;;;;;;17.02;2.75;;;;;;;;;;4973368;28;20030;-75
2022/05/21 06:31:42;;;;;;;12.88;2.35;;;;;;;;;;4973390;28;20498;-75
2022/05/21 06:34:08;;;;;;;14.70;2.15;;;;;;;;;;4973205;28;20107;-75
2022/05/21 06:36:34;;;;;;;13.13;2.17;;;;;;;;;;4973142;28;20394;-75
2022/05/21 06:39:00;;;;;;;10.85;2.10;;;;;;;;;;4973079;28;20061;-74
2022/05/21 06:41:29;;;;;;;17.17;2.42;;;;;;;;;;4973113;28;20027;-74
2022/05/21 06:43:55;;;;;;;18.00;2.55;;;;;;;;;;4970472;28;20030;-75
2022/05/21 06:46:22;;;;;;;17.08;2.40;;;;;;;;;;4971006;28;20050;-75
2022/05/21 06:48:48;;;;;;;13.85;2.40;;;;;;;;;;4971257;28;20102;-75
2022/05/21 06:51:14;;;;;;;14.27;2.13;;;;;;;;;;4971416;28;20023;-75
2022/05/21 06:53:40;;;;;;;15.15;2.80;;;;;;;;;;4964716;28;20097;-75
2022/05/21 06:56:10;;;;;;;9.73;2.15;;;;;;;;;;4955235;28;20031;-75
2022/05/21 06:58:36;;;;;;;15.55;2.10;;;;;;;;;;4972746;28;20029;-75
2022/05/21 07:01:02;;;;;;;12.65;2.60;;;;;;;;;;4972727;28;20095;-75
2022/05/21 07:03:28;;;;;;;13.30;2.33;;;;;;;;;;4972692;28;20093;-75
2022/05/21 07:08:39;;;;;;;15.68;2.10;;;;;;;;;;4971964;28;20029;-75
2022/05/21 07:11:06;;;;;;;8.75;1.63;;;;;;;;;;4969964;28;20182;-75
2022/05/21 07:13:32;;;;;;;12.65;2.00;;;;;;;;;;4971928;28;20018;-76
2022/05/21 07:15:59;;;;;;;14.35;1.92;;;;;;;;;;4971993;28;20027;-76
2022/05/21 07:18:27;;;;;;;16.45;2.72;;;;;;;;;;4972251;28;20045;-75
2022/05/21 07:20:53;;;;;;;11.63;2.00;;;;;;;;;;4970844;28;20103;-75
2022/05/21 07:23:20;;;;;;;16.60;2.30;;;;;;;;;;4972335;28;20027;-75
2022/05/21 07:25:47;;;;;;;18.83;2.88;;;;;;;;;;4969167;28;20039;-75
2022/05/21 07:28:13;;;;;;;12.55;2.35;;;;;;;;;;4972310;28;20094;-75
2022/05/21 07:30:40;;;;;;;11.25;1.90;;;;;;;;;;4972075;28;20034;-75
2022/05/21 07:33:09;;;;;;;12.48;2.38;;;;;;;;;;4969344;28;20030;-75
2022/05/21 07:35:37;;;;;;;15.80;1.90;;;;;;;;;;4971156;28;20462;-75
2022/05/21 07:38:03;;;;;;;11.25;1.63;;;;;;;;;;4972287;28;20023;-75
2022/05/21 07:40:29;;;;;;;11.35;1.67;;;;;;;;;;4971872;28;20335;-75
2022/05/21 07:42:55;;;;;;;13.50;2.10;;;;;;;;;;4971723;28;20034;-75
2022/05/21 07:45:22;;;;;;;8.88;1.88;;;;;;;;;;4971444;28;20027;-75
2022/05/21 07:47:49;;;;;;;12.38;2.05;;;;;;;;;;4971336;28;20042;-76
2022/05/21 07:50:15;;;;;;;9.77;1.80;;;;;;;;;;4971169;28;20029;-75
2022/05/21 07:52:42;;;;;;;12.18;2.40;;;;;;;;;;4953902;28;20019;-76
2022/05/21 07:55:09;;;;;;;18.77;2.53;;;;;;;;;;4970573;28;20442;-75
2022/05/21 07:57:35;;;;;;;10.85;1.40;;;;;;;;;;4966269;28;20038;-76
2022/05/21 08:00:01;;;;;;;11.02;2.35;;;;;;;;;;4963245;28;20022;-77
2022/05/21 08:02:27;;;;;;;10.32;1.63;;;;;;;;;;4973903;28;20034;-77
2022/05/21 08:04:54;;;;;;;13.73;1.58;;;;;;;;;;4976349;28;20029;-77
2022/05/21 08:07:21;;;;;;;10.35;1.70;;;;;;;;;;4976489;28;20031;-77
2022/05/21 08:09:47;;;;;;;8.48;1.75;;;;;;;;;;4976450;28;20027;-79
2022/05/21 08:12:14;;;;;;;16.52;3.47;;;;;;;;;;4975367;28;20018;-76
2022/05/21 08:14:41;;;;;;;15.77;2.00;;;;;;;;;;4965455;28;20379;-79
2022/05/21 08:17:07;;;;;;;10.55;1.48;;;;;;;;;;4965211;28;20653;-80
2022/05/21 08:19:33;;;;;;;9.77;1.60;;;;;;;;;;4969842;28;20086;-78
2022/05/21 08:26:56;;;;;;;8.15;1.50;;;;;;;;;;4976538;28;20078;-79
2022/05/21 08:27:50;;;;;;;13.55;1.70;;;;;;;;;;4897793;29;20049;-78
2022/05/21 08:30:16;;;;;;;4.95;1.30;;;;;;;;;;4897361;29;20628;-78
2022/05/21 08:32:42;;;;;;;10.80;1.58;;;;;;;;;;4897704;29;20123;-79
2022/05/21 08:35:08;;;;;;;9.77;2.13;;;;;;;;;;4897616;29;20488;-80
2022/05/21 08:37:35;;;;;;;8.85;1.70;;;;;;;;;;4898177;29;20072;-79
2022/05/21 08:40:01;;;;;;;7.97;1.55;;;;;;;;;;4897264;29;20063;-80
2022/05/21 08:42:34;;;;;;;10.65;1.70;;;;;;;;;;4896568;29;20148;-77
2022/05/21 08:45:11;;;;;;;10.10;2.08;;;;;;;;;;4883941;29;20563;-75
2022/05/21 08:47:38;;;;;;;12.00;1.60;;;;;;;;;;4877925;29;20156;-74
2022/05/21 08:50:13;;;;;;;10.15;1.67;;;;;;;;;;4878049;29;20037;-74
2022/05/21 08:52:41;;;;;;;10.85;1.98;;;;;;;;;;4878010;29;20045;-74
2022/05/21 08:55:08;;;;;;;7.07;2.20;;;;;;;;;;4896270;29;20029;-75
2022/05/21 08:57:48;;;;;;;13.57;1.50;;;;;;;;;;4901469;29;20036;-75
2022/05/21 09:00:20;;;;;;;10.45;1.80;;;;;;;;;;4955937;29;20057;-75
2022/05/21 09:02:46;;;;;;;14.45;1.88;;;;;;;;;;4955865;29;20023;-74
2022/05/21 09:05:15;;;;;;;14.13;1.85;;;;;;;;;;4955566;29;20466;-75
2022/05/21 09:07:49;;;;;;;13.60;1.63;;;;;;;;;;4955739;29;20382;-75
2022/05/21 09:10:30;;;;;;;10.65;1.80;;;;;;;;;;4955480;29;20070;-75
2022/05/21 09:13:03;;;;;;;8.55;1.75;;;;;;;;;;4954370;28;20035;-75
2022/05/21 09:18:14;;;;;;;12.85;1.50;;;;;;;;;;4955688;29;20050;-74
2022/05/21 09:20:55;;;;;;;8.80;1.60;;;;;;;;;;4955123;28;20043;-73
2022/05/21 09:23:21;;;;;;;14.77;1.70;;;;;;;;;;4955512;29;20024;-74
2022/05/21 09:26:03;;;;;;;8.00;1.50;;;;;;;;;;4957991;28;20031;-74
2022/05/21 09:28:29;;;;;;;7.57;1.60;;;;;;;;;;4972637;28;20545;-74
2022/05/21 09:30:57;;;;;;;7.47;1.30;;;;;;;;;;4974077;28;20377;-73
2022/05/21 09:33:26;;;;;;;9.70;1.38;;;;;;;;;;4973496;28;20494;-74
2022/05/21 09:35:53;;;;;;;9.73;1.63;;;;;;;;;;4956034;28;20034;-74
2022/05/21 09:38:21;;;;;;;9.43;1.88;;;;;;;;;;4973670;28;20030;-74
2022/05/21 09:40:49;;;;;;;8.82;1.75;;;;;;;;;;4972432;28;20065;-75
2022/05/21 09:46:18;;;;;;;4.10;1.15;;;;;;;;;;4973632;28;20109;-75
2022/05/21 09:48:46;;;;;;;5.45;1.33;;;;;;;;;;4973179;28;20047;-74
2022/05/21 09:51:30;;;;;;;11.55;1.98;;;;;;;;;;4973775;28;20133;-75
2022/05/21 09:53:57;;;;;;;12.38;2.10;;;;;;;;;;4973447;28;20064;-74
2022/05/21 09:56:25;;;;;;;9.93;1.88;;;;;;;;;;4973823;28;20042;-73
2022/05/21 09:58:54;;;;;;;9.82;2.05;;;;;;;;;;4974003;28;20081;-73
2022/05/21 10:01:40;;;;;;;14.52;1.77;;;;;;;;;;4974045;28;20114;-74
2022/05/21 10:04:11;;;;;;;13.88;3.42;;;;;;;;;;4973973;28;20038;-73
2022/05/21 10:06:40;;;;;;;21.48;3.88;;;;;;;;;;4973598;28;20554;-73
2022/05/21 10:11:58;;;;;;;10.95;1.85;;;;;;;;;;4974068;28;20041;-72
2022/05/21 10:14:35;;;;;;;7.78;1.42;;;;;;;;;;4974080;28;20404;-77
2022/05/21 10:17:05;;;;;;;7.57;1.52;;;;;;;;;;4973766;28;20027;-75
2022/05/21 10:19:38;;;;;;;7.50;1.52;;;;;;;;;;4973132;28;20029;-76
2022/05/21 10:22:06;;;;;;;8.75;1.38;;;;;;;;;;4954134;29;20098;-76
2022/05/21 10:24:51;;;;;;;11.40;2.35;;;;;;;;;;4953831;28;20137;-75
2022/05/21 10:27:17;;;;;;;7.13;1.50;;;;;;;;;;4954087;29;20039;-77
2022/05/21 10:29:59;;;;;;;7.57;1.35;;;;;;;;;;4960847;28;20082;-75
2022/05/21 10:32:25;;;;;;;9.95;2.13;;;;;;;;;;4973495;28;20110;-77
2022/05/21 10:34:51;;;;;;;10.57;1.40;;;;;;;;;;4973710;28;20061;-76
2022/05/21 10:37:17;;;;;;;9.98;1.50;;;;;;;;;;4973178;28;20497;-73
2022/05/21 10:39:55;;;;;;;8.60;1.80;;;;;;;;;;4972644;28;20442;-73
2022/05/21 10:42:21;;;;;;;5.05;1.42;;;;;;;;;;4972996;28;20473;-72
2022/05/21 10:45:06;;;;;;;10.90;1.60;;;;;;;;;;4972685;28;20042;-72
2022/05/21 10:47:51;;;;;;;12.38;1.88;;;;;;;;;;4972808;28;20054;-71
2022/05/21 10:50:22;;;;;;;7.65;1.80;;;;;;;;;;4972600;28;20493;-72
2022/05/21 10:53:03;;;;;;;8.63;1.77;;;;;;;;;;4954533;28;20027;-72
2022/05/21 10:55:37;;;;;;;10.30;1.58;;;;;;;;;;4955252;28;20034;-72
2022/05/21 10:58:20;;;;;;;11.38;1.60;;;;;;;;;;4972658;28;20430;-73
2022/05/21 11:01:05;;;;;;;16.00;2.28;;;;;;;;;;4972880;28;20023;-72
2022/05/21 11:03:40;;;;;;;7.82;1.75;;;;;;;;;;4972865;28;20081;-75
2022/05/21 11:06:09;;;;;;;12.10;2.15;;;;;;;;;;4972929;28;20031;-72
2022/05/21 11:08:38;;;;;;;10.95;1.90;;;;;;;;;;4972899;28;20065;-72
2022/05/21 11:11:22;;;;;;;5.70;1.20;;;;;;;;;;4972633;28;20038;-72
2022/05/21 11:13:57;;;;;;;6.60;1.30;;;;;;;;;;4972779;28;20128;-73
2022/05/21 11:16:25;;;;;;;23.73;5.25;;;;;;;;;;4972796;28;20030;-73
2022/05/21 11:19:00;;;;;;;8.95;1.38;;;;;;;;;;4972710;28;20042;-73
2022/05/21 11:21:33;;;;;;;11.80;1.98;;;;;;;;;;4972432;28;20058;-73
2022/05/21 11:24:21;;;;;;;11.52;1.55;;;;;;;;;;4972553;28;20338;-73
2022/05/21 11:26:57;;;;;;;10.63;2.28;;;;;;;;;;4972096;28;20030;-73
2022/05/21 11:29:29;;;;;;;9.30;1.73;;;;;;;;;;4969934;28;20109;-73
2022/05/21 11:37:37;;;;;;;4.18;1.10;;;;;;;;;;4971410;28;20037;-74
2022/05/21 11:40:03;;;;;;;9.90;1.50;;;;;;;;;;4970196;28;20110;-74
2022/05/21 11:42:36;;;;;;;6.07;1.40;;;;;;;;;;4971889;28;20057;-73
2022/05/21 11:45:22;;;;;;;8.32;1.45;;;;;;;;;;4971800;28;20050;-73
2022/05/21 11:47:49;;;;;;;5.97;1.38;;;;;;;;;;4971698;28;20050;-74
2022/05/21 11:50:15;;;;;;;7.70;1.48;;;;;;;;;;4971662;28;20018;-74
2022/05/21 11:52:42;;;;;;;8.95;1.60;;;;;;;;;;4954586;28;20027;-73
2022/05/21 11:55:11;;;;;;;8.27;1.40;;;;;;;;;;4953494;28;20035;-74
2022/05/21 11:57:43;;;;;;;4.50;1.13;;;;;;;;;;4971277;28;20027;-73
2022/05/21 12:00:29;;;;;;;5.82;1.10;;;;;;;;;;4971758;28;20019;-73
2022/05/21 12:02:56;;;;;;;4.82;1.10;;;;;;;;;;4971511;28;20031;-73
2022/05/21 12:05:34;;;;;;;4.75;1.08;;;;;;;;;;4971505;28;20019;-73
2022/05/21 12:08:14;;;;;;;9.15;1.60;;;;;;;;;;4971697;28;20023;-74
2022/05/21 12:10:56;;;;;;;6.85;1.10;;;;;;;;;;4971569;28;20023;-72
2022/05/21 12:13:34;;;;;;;7.32;1.15;;;;;;;;;;4971688;28;20369;-72
2022/05/21 12:16:24;;;;;;;6.70;1.30;;;;;;;;;;4971534;28;20093;-72
2022/05/21 12:18:54;;;;;;;10.40;1.70;;;;;;;;;;4972032;28;20488;-72
2022/05/21 12:21:29;;;;;;;8.43;1.10;;;;;;;;;;4967161;28;20027;-72
2022/05/21 12:23:56;;;;;;;9.80;2.33;;;;;;;;;;4972177;28;20054;-72
2022/05/21 12:26:23;;;;;;;10.90;1.60;;;;;;;;;;4971898;28;20161;-72
2022/05/21 12:28:49;;;;;;;7.13;1.30;;;;;;;;;;4972116;28;20015;-72
2022/05/21 12:31:21;;;;;;;10.15;1.48;;;;;;;;;;4971948;28;20034;-73
2022/05/21 12:34:06;;;;;;;12.48;1.77;;;;;;;;;;4954578;28;20034;-73
2022/05/21 12:36:46;;;;;;;6.28;1.90;;;;;;;;;;4971887;28;20106;-73
2022/05/21 12:39:15;;;;;;;7.82;1.70;;;;;;;;;;4954506;28;20034;-72
2022/05/21 12:41:44;;;;;;;5.97;1.30;;;;;;;;;;4954406;28;20050;-73
2022/05/21 12:44:11;;;;;;;7.38;1.55;;;;;;;;;;4954379;28;20373;-73
2022/05/21 12:46:41;;;;;;;10.23;1.38;;;;;;;;;;4954657;28;20057;-72
2022/05/21 12:49:10;;;;;;;9.93;2.40;;;;;;;;;;4974627;28;20350;-72
2022/05/21 12:51:49;;;;;;;9.10;1.48;;;;;;;;;;4972858;28;20027;-73
2022/05/21 12:54:26;;;;;;;12.73;1.67;;;;;;;;;;4968706;28;20030;-73
2022/05/21 12:56:52;;;;;;;8.13;1.70;;;;;;;;;;4973707;28;20133;-73
2022/05/21 12:59:23;;;;;;;6.95;1.75;;;;;;;;;;4974379;28;20019;-73
2022/05/21 13:01:55;;;;;;;14.20;2.10;;;;;;;;;;4974523;28;20496;-75
2022/05/21 13:04:23;;;;;;;9.02;1.63;;;;;;;;;;4975242;28;20030;-74
2022/05/21 13:06:52;;;;;;;11.10;2.13;;;;;;;;;;4974940;28;20035;-73
2022/05/21 13:09:18;;;;;;;13.05;2.75;;;;;;;;;;4975102;28;20023;-74
2022/05/21 13:11:44;;;;;;;13.52;1.90;;;;;;;;;;4975310;28;20085;-73
2022/05/21 13:14:13;;;;;;;10.95;2.28;;;;;;;;;;4975266;28;20334;-74
2022/05/21 13:16:51;;;;;;;10.63;3.13;;;;;;;;;;4974673;28;20026;-73
2022/05/21 13:19:36;;;;;;;9.20;2.42;;;;;;;;;;4974339;28;20066;-73
2022/05/21 13:22:20;;;;;;;14.55;2.35;;;;;;;;;;4955566;29;20043;-73
2022/05/21 13:24:53;;;;;;;9.05;2.05;;;;;;;;;;4955339;29;20102;-73
2022/05/21 13:27:21;;;;;;;12.38;2.05;;;;;;;;;;4955441;29;20035;-73
2022/05/21 13:29:48;;;;;;;8.15;2.00;;;;;;;;;;4955343;29;20020;-73
2022/05/21 13:32:14;;;;;;;9.80;1.63;;;;;;;;;;4955300;29;20381;-72
2022/05/21 13:34:40;;;;;;;5.03;1.73;;;;;;;;;;4955045;29;20079;-74
2022/05/21 13:37:06;;;;;;;8.52;1.90;;;;;;;;;;4954919;29;20027;-73
2022/05/21 13:39:34;;;;;;;13.18;2.13;;;;;;;;;;4955275;29;20035;-74
2022/05/21 13:42:02;;;;;;;7.57;1.77;;;;;;;;;;4955017;29;20487;-74
2022/05/21 13:44:28;;;;;;;7.88;2.03;;;;;;;;;;4955050;29;20034;-75
2022/05/21 13:46:59;;;;;;;9.40;2.45;;;;;;;;;;4954792;29;20028;-73
2022/05/21 13:49:31;;;;;;;9.25;2.00;;;;;;;;;;4954627;29;20102;-75
2022/05/21 13:51:57;;;;;;;12.38;2.55;;;;;;;;;;4954932;29;20098;-73
2022/05/21 13:54:26;;;;;;;9.85;2.38;;;;;;;;;;4968242;28;20115;-74
2022/05/21 13:57:02;;;;;;;9.77;1.73;;;;;;;;;;4974085;28;20027;-73
2022/05/21 13:59:28;;;;;;;10.43;2.20;;;;;;;;;;4973535;28;20042;-75
2022/05/21 14:01:56;;;;;;;8.68;1.90;;;;;;;;;;4974414;28;20113;-75
2022/05/21 14:04:30;;;;;;;9.10;1.88;;;;;;;;;;4974209;28;20058;-75
2022/05/21 14:06:56;;;;;;;5.40;1.27;;;;;;;;;;4974097;28;20054;-74
2022/05/21 14:09:23;;;;;;;6.13;1.20;;;;;;;;;;4974039;28;20027;-73
2022/05/21 14:11:57;;;;;;;7.60;1.10;;;;;;;;;;4974114;28;20058;-75
2022/05/21 14:14:25;;;;;;;6.10;1.10;;;;;;;;;;4973915;28;20031;-73
2022/05/21 14:17:05;;;;;;;6.55;1.40;;;;;;;;;;4956356;28;20043;-74
2022/05/21 14:19:32;;;;;;;9.43;1.30;;;;;;;;;;4973362;28;20062;-73
2022/05/21 14:22:00;;;;;;;8.75;1.67;;;;;;;;;;4973554;28;20049;-74
2022/05/21 14:24:31;;;;;;;12.45;3.88;;;;;;;;;;4974002;28;20027;-74
2022/05/21 14:26:59;;;;;;;17.92;5.40;;;;;;;;;;4973466;28;20031;-74
2022/05/21 14:29:38;;;;;;;185.82;112.13;;;;;;;;;;4973567;28;20448;-75
2022/05/21 14:32:12;;;;;;;360.90;233.15;;;;;;;;;;4973775;28;20019;-75
2022/05/21 14:34:38;;;;;;;99.10;62.88;;;;;;;;;;4973650;28;20102;-73
2022/05/21 14:37:04;;;;;;;47.25;27.17;;;;;;;;;;4973155;28;20035;-75
2022/05/21 14:39:30;;;;;;;24.58;14.27;;;;;;;;;;4972998;28;20377;-74
2022/05/21 14:42:13;;;;;;;37.03;24.02;;;;;;;;;;4969001;28;20062;-77
2022/05/21 14:44:50;;;;;;;15.65;9.50;;;;;;;;;;4950225;28;20019;-74
2022/05/21 14:52:59;;;;;;;13.95;10.05;;;;;;;;;;4966510;28;20116;-76
2022/05/21 14:55:36;;;;;;;32.03;28.23;;;;;;;;;;4974132;28;20140;-79
2022/05/21 14:58:03;;;;;;;29.80;18.98;;;;;;;;;;4957376;28;20031;-77
2022/05/21 15:00:30;;;;;;;94.93;56.40;;;;;;;;;;4955959;28;20027;-77
2022/05/21 15:02:56;;;;;;;182.45;90.60;;;;;;;;;;4974074;28;20392;-76
2022/05/21 15:05:24;;;;;;;60.03;37.35;;;;;;;;;;4973272;28;20033;-75
2022/05/21 15:07:54;;;;;;;8.80;3.50;;;;;;;;;;4956972;28;20034;-75
2022/05/21 15:10:22;;;;;;;13.40;5.55;;;;;;;;;;4974474;28;20531;-78
2022/05/21 15:12:50;;;;;;;15.95;8.05;;;;;;;;;;4956176;28;20027;-76
2022/05/21 15:15:18;;;;;;;70.05;32.53;;;;;;;;;;4955729;28;20038;-76